Portland, Oregon
Current Conditions -  °F | °C
As of 5:53 AM on Sunday 23 Nov 2014 (Local Time) from KPDX Reporting Station
Broken Clouds Broken Clouds  
Wind Chill: 43°   Ceiling: 6500
Heat Index: 49°   Visibility: 10mi
Dew Point: 45°   Wind: 16mph
Humidity: 86%   Direction: 190°S
Pressure: 30.28"   Gusts: NA
Location:  45.51°N, 122.67°W
Report Text: KPDX 231353Z 19014KT 10SM FEW010 BKN065 09/07 A3028 RMK AO2 SLP252 T00940072
Loading
Personal Weather Stations






























Interactive Weather Map New forecast layout! Learn more

10-Day Weather Forecast

Advertisements
Track Severe Weather on mobile